sensor_id;sensor_type;location;lat;lon;timestamp;temperature;humidity
31675;DHT22;18276;45.520;11.018;2022-12-29T00:00:06;8.80;96.50
31675;DHT22;18276;45.520;11.018;2022-12-29T00:02:40;8.80;96.60
31675;DHT22;18276;45.520;11.018;2022-12-29T00:05:09;8.80;96.80
31675;DHT22;18276;45.520;11.018;2022-12-29T00:07:36;8.80;96.90
31675;DHT22;18276;45.520;11.018;2022-12-29T00:10:04;8.80;97.00
31675;DHT22;18276;45.520;11.018;2022-12-29T00:12:31;8.80;97.00
31675;DHT22;18276;45.520;11.018;2022-12-29T00:15:18;8.80;97.00
31675;DHT22;18276;45.520;11.018;2022-12-29T00:18:04;8.80;97.00
31675;DHT22;18276;45.520;11.018;2022-12-29T00:20:36;8.80;97.00
31675;DHT22;18276;45.520;11.018;2022-12-29T00:23:23;8.80;97.10
31675;DHT22;18276;45.520;11.018;2022-12-29T00:26:15;8.80;97.10
31675;DHT22;18276;45.520;11.018;2022-12-29T00:29:02;8.80;97.20
31675;DHT22;18276;45.520;11.018;2022-12-29T00:31:47;8.80;97.20
31675;DHT22;18276;45.520;11.018;2022-12-29T00:34:33;8.70;97.20
31675;DHT22;18276;45.520;11.018;2022-12-29T00:37:19;8.80;97.30
31675;DHT22;18276;45.520;11.018;2022-12-29T00:40:06;8.80;97.30
31675;DHT22;18276;45.520;11.018;2022-12-29T00:42:52;8.80;97.30
31675;DHT22;18276;45.520;11.018;2022-12-29T00:45:41;8.80;97.20
31675;DHT22;18276;45.520;11.018;2022-12-29T00:48:08;8.80;97.20
31675;DHT22;18276;45.520;11.018;2022-12-29T00:50:35;8.80;97.20
31675;DHT22;18276;45.520;11.018;2022-12-29T00:53:02;8.80;97.40
31675;DHT22;18276;45.520;11.018;2022-12-29T00:55:29;8.80;97.50
31675;DHT22;18276;45.520;11.018;2022-12-29T00:57:56;8.80;97.60
31675;DHT22;18276;45.520;11.018;2022-12-29T01:00:23;8.70;97.60
31675;DHT22;18276;45.520;11.018;2022-12-29T01:02:51;8.70;97.70
31675;DHT22;18276;45.520;11.018;2022-12-29T01:05:18;8.70;97.90
31675;DHT22;18276;45.520;11.018;2022-12-29T01:07:45;8.70;98.00
31675;DHT22;18276;45.520;11.018;2022-12-29T01:10:12;8.70;98.10
31675;DHT22;18276;45.520;11.018;2022-12-29T01:12:41;8.70;98.30
31675;DHT22;18276;45.520;11.018;2022-12-29T01:15:11;8.70;98.50
31675;DHT22;18276;45.520;11.018;2022-12-29T01:17:40;8.70;98.60
31675;DHT22;18276;45.520;11.018;2022-12-29T01:20:08;8.60;98.60
31675;DHT22;18276;45.520;11.018;2022-12-29T01:22:36;8.60;98.60
31675;DHT22;18276;45.520;11.018;2022-12-29T01:25:04;8.50;98.80
31675;DHT22;18276;45.520;11.018;2022-12-29T01:27:33;8.50;98.80
31675;DHT22;18276;45.520;11.018;2022-12-29T01:30:00;8.30;99.00
31675;DHT22;18276;45.520;11.018;2022-12-29T01:32:27;8.30;99.40
31675;DHT22;18276;45.520;11.018;2022-12-29T01:34:54;8.20;99.60
31675;DHT22;18276;45.520;11.018;2022-12-29T01:37:21;8.20;99.80
31675;DHT22;18276;45.520;11.018;2022-12-29T01:39:48;8.20;99.90
31675;DHT22;18276;45.520;11.018;2022-12-29T01:42:17;8.20;99.90
31675;DHT22;18276;45.520;11.018;2022-12-29T01:47:38;8.20;99.90
31675;DHT22;18276;45.520;11.018;2022-12-29T01:50:11;8.20;99.90
31675;DHT22;18276;45.520;11.018;2022-12-29T01:52:44;8.20;99.90
31675;DHT22;18276;45.520;11.018;2022-12-29T01:55:17;8.20;99.90
31675;DHT22;18276;45.520;11.018;2022-12-29T01:57:47;8.30;99.90
31675;DHT22;18276;45.520;11.018;2022-12-29T02:00:15;8.30;99.90
31675;DHT22;18276;45.520;11.018;2022-12-29T02:02:52;8.40;99.90
31675;DHT22;18276;45.520;11.018;2022-12-29T02:05:33;8.40;99.90
31675;DHT22;18276;45.520;11.018;2022-12-29T02:08:02;8.40;99.90
31675;DHT22;18276;45.520;11.018;2022-12-29T02:10:32;8.50;99.90
31675;DHT22;18276;45.520;11.018;2022-12-29T02:13:00;8.40;99.90
31675;DHT22;18276;45.520;11.018;2022-12-29T02:18:27;8.40;99.90
31675;DHT22;18276;45.520;11.018;2022-12-29T02:40:58;8.30;99.90
31675;DHT22;18276;45.520;11.018;2022-12-29T02:43:36;8.30;99.90
31675;DHT22;18276;45.520;11.018;2022-12-29T02:46:11;8.30;99.90
31675;DHT22;18276;45.520;11.018;2022-12-29T02:54:18;8.30;99.90
31675;DHT22;18276;45.520;11.018;2022-12-29T03:00:05;8.40;99.90
31675;DHT22;18276;45.520;11.018;2022-12-29T03:10:37;8.50;99.90
31675;DHT22;18276;45.520;11.018;2022-12-29T03:13:23;8.50;99.90
31675;DHT22;18276;45.520;11.018;2022-12-29T03:16:20;8.50;99.90
31675;DHT22;18276;45.520;11.018;2022-12-29T03:19:10;8.50;99.90
31675;DHT22;18276;45.520;11.018;2022-12-29T03:21:45;8.60;99.90
31675;DHT22;18276;45.520;11.018;2022-12-29T03:24:41;8.60;99.90
31675;DHT22;18276;45.520;11.018;2022-12-29T03:27:16;8.60;99.90
31675;DHT22;18276;45.520;11.018;2022-12-29T03:29:50;8.70;99.90
31675;DHT22;18276;45.520;11.018;2022-12-29T03:32:24;8.70;99.90
31675;DHT22;18276;45.520;11.018;2022-12-29T03:34:53;8.60;99.90
31675;DHT22;18276;45.520;11.018;2022-12-29T03:37:26;8.70;99.90
31675;DHT22;18276;45.520;11.018;2022-12-29T03:39:57;8.70;99.90
31675;DHT22;18276;45.520;11.018;2022-12-29T03:42:27;8.70;99.90
31675;DHT22;18276;45.520;11.018;2022-12-29T03:44:57;8.70;99.90
31675;DHT22;18276;45.520;11.018;2022-12-29T03:47:25;8.70;99.90
31675;DHT22;18276;45.520;11.018;2022-12-29T03:49:52;8.70;99.90
31675;DHT22;18276;45.520;11.018;2022-12-29T03:52:20;8.70;99.90
31675;DHT22;18276;45.520;11.018;2022-12-29T03:54:48;8.70;99.90
31675;DHT22;18276;45.520;11.018;2022-12-29T03:57:16;8.70;99.90
31675;DHT22;18276;45.520;11.018;2022-12-29T04:00:04;8.70;99.90
31675;DHT22;18276;45.520;11.018;2022-12-29T04:02:41;8.70;99.90
31675;DHT22;18276;45.520;11.018;2022-12-29T04:05:13;8.70;99.90
31675;DHT22;18276;45.520;11.018;2022-12-29T04:07:40;8.70;99.90
31675;DHT22;18276;45.520;11.018;2022-12-29T04:10:07;8.70;99.90
31675;DHT22;18276;45.520;11.018;2022-12-29T04:12:35;8.70;99.90
31675;DHT22;18276;45.520;11.018;2022-12-29T04:15:02;8.70;99.90
31675;DHT22;18276;45.520;11.018;2022-12-29T04:17:30;8.70;99.90
31675;DHT22;18276;45.520;11.018;2022-12-29T04:19:57;8.70;99.90
31675;DHT22;18276;45.520;11.018;2022-12-29T04:22:44;8.70;99.90
31675;DHT22;18276;45.520;11.018;2022-12-29T04:25:12;8.70;99.90
31675;DHT22;18276;45.520;11.018;2022-12-29T04:27:41;8.70;99.90
31675;DHT22;18276;45.520;11.018;2022-12-29T04:30:27;8.70;99.90
31675;DHT22;18276;45.520;11.018;2022-12-29T04:33:07;8.70;99.90
31675;DHT22;18276;45.520;11.018;2022-12-29T04:35:34;8.60;99.90
31675;DHT22;18276;45.520;11.018;2022-12-29T04:38:02;8.60;99.90
31675;DHT22;18276;45.520;11.018;2022-12-29T04:40:29;8.60;99.90
31675;DHT22;18276;45.520;11.018;2022-12-29T04:42:57;8.60;99.90
31675;DHT22;18276;45.520;11.018;2022-12-29T04:45:24;8.60;99.90
31675;DHT22;18276;45.520;11.018;2022-12-29T04:47:58;8.60;99.90
31675;DHT22;18276;45.520;11.018;2022-12-29T04:50:47;8.60;99.90
31675;DHT22;18276;45.520;11.018;2022-12-29T04:53:17;8.60;99.90
31675;DHT22;18276;45.520;11.018;2022-12-29T04:55:51;8.60;99.90
31675;DHT22;18276;45.520;11.018;2022-12-29T04:58:20;8.60;99.90
31675;DHT22;18276;45.520;11.018;2022-12-29T05:00:50;8.60;99.90
31675;DHT22;18276;45.520;11.018;2022-12-29T05:03:20;8.60;99.90
31675;DHT22;18276;45.520;11.018;2022-12-29T05:05:48;8.60;99.90
31675;DHT22;18276;45.520;11.018;2022-12-29T05:08:15;8.60;99.90
31675;DHT22;18276;45.520;11.018;2022-12-29T05:10:45;8.70;99.90
31675;DHT22;18276;45.520;11.018;2022-12-29T05:13:13;8.70;99.90
31675;DHT22;18276;45.520;11.018;2022-12-29T05:15:47;8.70;99.90
31675;DHT22;18276;45.520;11.018;2022-12-29T05:18:16;8.70;99.90
31675;DHT22;18276;45.520;11.018;2022-12-29T05:20:44;8.80;99.90
31675;DHT22;18276;45.520;11.018;2022-12-29T05:23:11;8.80;99.90
31675;DHT22;18276;45.520;11.018;2022-12-29T05:25:40;8.80;99.90
31675;DHT22;18276;45.520;11.018;2022-12-29T05:28:14;8.80;99.90
31675;DHT22;18276;45.520;11.018;2022-12-29T05:31:01;8.80;99.90
31675;DHT22;18276;45.520;11.018;2022-12-29T05:33:30;8.80;99.90
31675;DHT22;18276;45.520;11.018;2022-12-29T05:35:57;8.80;99.90
31675;DHT22;18276;45.520;11.018;2022-12-29T05:38:29;8.80;99.90
31675;DHT22;18276;45.520;11.018;2022-12-29T05:40:56;8.80;99.90
31675;DHT22;18276;45.520;11.018;2022-12-29T05:43:59;8.80;99.90
31675;DHT22;18276;45.520;11.018;2022-12-29T05:46:33;8.70;99.90
31675;DHT22;18276;45.520;11.018;2022-12-29T05:49:08;8.70;99.90
31675;DHT22;18276;45.520;11.018;2022-12-29T05:51:54;8.70;99.90
31675;DHT22;18276;45.520;11.018;2022-12-29T05:54:21;8.70;99.90
31675;DHT22;18276;45.520;11.018;2022-12-29T05:56:49;8.80;99.90
31675;DHT22;18276;45.520;11.018;2022-12-29T05:59:17;8.80;99.90
31675;DHT22;18276;45.520;11.018;2022-12-29T06:01:46;8.80;99.90
31675;DHT22;18276;45.520;11.018;2022-12-29T06:04:14;8.80;99.90
31675;DHT22;18276;45.520;11.018;2022-12-29T06:06:41;8.80;99.90
31675;DHT22;18276;45.520;11.018;2022-12-29T06:09:14;8.80;99.90
31675;DHT22;18276;45.520;11.018;2022-12-29T06:11:41;8.80;99.90
31675;DHT22;18276;45.520;11.018;2022-12-29T06:14:09;8.80;99.90
31675;DHT22;18276;45.520;11.018;2022-12-29T06:16:36;8.80;99.90
31675;DHT22;18276;45.520;11.018;2022-12-29T06:19:08;8.80;99.90
31675;DHT22;18276;45.520;11.018;2022-12-29T06:21:35;8.80;99.90
31675;DHT22;18276;45.520;11.018;2022-12-29T06:24:02;8.80;99.90
31675;DHT22;18276;45.520;11.018;2022-12-29T06:26:29;8.80;99.90
31675;DHT22;18276;45.520;11.018;2022-12-29T06:28:56;8.80;99.90
31675;DHT22;18276;45.520;11.018;2022-12-29T06:31:23;8.80;99.90
31675;DHT22;18276;45.520;11.018;2022-12-29T06:33:51;8.70;99.90
31675;DHT22;18276;45.520;11.018;2022-12-29T06:36:18;8.70;99.90
31675;DHT22;18276;45.520;11.018;2022-12-29T06:38:45;8.70;99.90
31675;DHT22;18276;45.520;11.018;2022-12-29T06:41:12;8.70;99.90
31675;DHT22;18276;45.520;11.018;2022-12-29T06:44:02;8.70;99.90
31675;DHT22;18276;45.520;11.018;2022-12-29T06:46:55;8.60;99.90
31675;DHT22;18276;45.520;11.018;2022-12-29T06:49:24;8.60;99.90
31675;DHT22;18276;45.520;11.018;2022-12-29T06:51:51;8.60;99.90
31675;DHT22;18276;45.520;11.018;2022-12-29T06:54:18;8.60;99.90
31675;DHT22;18276;45.520;11.018;2022-12-29T06:56:45;8.60;99.90
31675;DHT22;18276;45.520;11.018;2022-12-29T06:59:12;8.50;99.90
31675;DHT22;18276;45.520;11.018;2022-12-29T07:01:39;8.50;99.90
31675;DHT22;18276;45.520;11.018;2022-12-29T07:04:07;8.50;99.90
31675;DHT22;18276;45.520;11.018;2022-12-29T07:06:34;8.60;99.90
31675;DHT22;18276;45.520;11.018;2022-12-29T07:09:01;8.60;99.90
31675;DHT22;18276;45.520;11.018;2022-12-29T07:11:28;8.60;99.90
31675;DHT22;18276;45.520;11.018;2022-12-29T07:13:55;8.60;99.90
31675;DHT22;18276;45.520;11.018;2022-12-29T07:16:22;8.50;99.90
31675;DHT22;18276;45.520;11.018;2022-12-29T07:18:50;8.50;99.90
31675;DHT22;18276;45.520;11.018;2022-12-29T07:21:18;8.50;99.90
31675;DHT22;18276;45.520;11.018;2022-12-29T07:23:45;8.50;99.90
31675;DHT22;18276;45.520;11.018;2022-12-29T07:26:14;8.50;99.90
31675;DHT22;18276;45.520;11.018;2022-12-29T07:28:41;8.50;99.90
31675;DHT22;18276;45.520;11.018;2022-12-29T07:31:17;8.60;99.90
31675;DHT22;18276;45.520;11.018;2022-12-29T07:33:45;8.60;99.90
31675;DHT22;18276;45.520;11.018;2022-12-29T07:36:13;8.60;99.90
31675;DHT22;18276;45.520;11.018;2022-12-29T07:38:41;8.70;99.90
31675;DHT22;18276;45.520;11.018;2022-12-29T07:41:08;8.70;99.90
31675;DHT22;18276;45.520;11.018;2022-12-29T07:43:36;8.60;99.90
31675;DHT22;18276;45.520;11.018;2022-12-29T07:46:32;8.60;99.90
31675;DHT22;18276;45.520;11.018;2022-12-29T07:49:20;8.50;99.90
31675;DHT22;18276;45.520;11.018;2022-12-29T07:51:47;8.50;99.90
31675;DHT22;18276;45.520;11.018;2022-12-29T07:54:14;8.50;99.90
31675;DHT22;18276;45.520;11.018;2022-12-29T07:56:41;8.50;99.90
31675;DHT22;18276;45.520;11.018;2022-12-29T07:59:08;8.60;99.90
31675;DHT22;18276;45.520;11.018;2022-12-29T08:01:35;8.60;99.90
31675;DHT22;18276;45.520;11.018;2022-12-29T08:04:02;8.70;99.90
31675;DHT22;18276;45.520;11.018;2022-12-29T08:06:29;9.30;99.90
31675;DHT22;18276;45.520;11.018;2022-12-29T08:08:57;9.80;99.90
31675;DHT22;18276;45.520;11.018;2022-12-29T08:11:31;9.90;99.90
31675;DHT22;18276;45.520;11.018;2022-12-29T08:13:58;9.90;99.90
31675;DHT22;18276;45.520;11.018;2022-12-29T08:16:28;9.90;99.90
31675;DHT22;18276;45.520;11.018;2022-12-29T08:18:55;10.00;99.90
31675;DHT22;18276;45.520;11.018;2022-12-29T08:21:22;9.90;99.90
31675;DHT22;18276;45.520;11.018;2022-12-29T08:23:49;9.90;99.90
31675;DHT22;18276;45.520;11.018;2022-12-29T08:26:16;9.80;99.90
31675;DHT22;18276;45.520;11.018;2022-12-29T08:28:43;9.70;99.90
31675;DHT22;18276;45.520;11.018;2022-12-29T08:31:11;9.70;99.90
31675;DHT22;18276;45.520;11.018;2022-12-29T08:33:38;9.60;99.90
31675;DHT22;18276;45.520;11.018;2022-12-29T08:36:06;9.60;99.90
31675;DHT22;18276;45.520;11.018;2022-12-29T08:38:33;9.50;99.90
31675;DHT22;18276;45.520;11.018;2022-12-29T08:41:00;9.40;99.90
31675;DHT22;18276;45.520;11.018;2022-12-29T08:43:29;9.40;99.90
31675;DHT22;18276;45.520;11.018;2022-12-29T08:45:57;9.30;99.90
31675;DHT22;18276;45.520;11.018;2022-12-29T08:48:25;9.20;99.90
31675;DHT22;18276;45.520;11.018;2022-12-29T08:50:52;9.10;99.90
31675;DHT22;18276;45.520;11.018;2022-12-29T08:53:20;9.00;99.90
31675;DHT22;18276;45.520;11.018;2022-12-29T08:55:54;8.90;99.90
31675;DHT22;18276;45.520;11.018;2022-12-29T08:58:30;8.90;99.90
31675;DHT22;18276;45.520;11.018;2022-12-29T09:00:58;8.80;99.90
31675;DHT22;18276;45.520;11.018;2022-12-29T09:03:26;8.80;99.90
31675;DHT22;18276;45.520;11.018;2022-12-29T09:06:15;8.80;99.90
31675;DHT22;18276;45.520;11.018;2022-12-29T09:08:43;8.70;99.90
31675;DHT22;18276;45.520;11.018;2022-12-29T09:11:18;8.80;99.90
31675;DHT22;18276;45.520;11.018;2022-12-29T09:13:46;8.70;99.90
31675;DHT22;18276;45.520;11.018;2022-12-29T09:16:14;8.70;99.90
31675;DHT22;18276;45.520;11.018;2022-12-29T09:18:41;8.70;99.90
31675;DHT22;18276;45.520;11.018;2022-12-29T09:21:10;8.70;99.90
31675;DHT22;18276;45.520;11.018;2022-12-29T09:23:37;8.80;99.90
31675;DHT22;18276;45.520;11.018;2022-12-29T09:26:04;8.80;99.90
31675;DHT22;18276;45.520;11.018;2022-12-29T09:28:31;8.90;99.90
31675;DHT22;18276;45.520;11.018;2022-12-29T09:30:59;9.00;99.90
31675;DHT22;18276;45.520;11.018;2022-12-29T09:33:26;9.10;99.90
31675;DHT22;18276;45.520;11.018;2022-12-29T09:35:57;9.20;99.90
31675;DHT22;18276;45.520;11.018;2022-12-29T09:38:26;9.30;99.90
31675;DHT22;18276;45.520;11.018;2022-12-29T09:40:56;9.30;99.90
31675;DHT22;18276;45.520;11.018;2022-12-29T09:51:49;9.50;99.90
31675;DHT22;18276;45.520;11.018;2022-12-29T09:56:57;9.60;99.90
31675;DHT22;18276;45.520;11.018;2022-12-29T09:59:39;9.70;99.90
31675;DHT22;18276;45.520;11.018;2022-12-29T10:04:54;9.90;99.90
31675;DHT22;18276;45.520;11.018;2022-12-29T10:12:54;10.10;99.90
31675;DHT22;18276;45.520;11.018;2022-12-29T10:16:08;10.10;99.90
31675;DHT22;18276;45.520;11.018;2022-12-29T10:18:41;10.10;99.90
31675;DHT22;18276;45.520;11.018;2022-12-29T10:21:28;10.10;99.90
31675;DHT22;18276;45.520;11.018;2022-12-29T10:23:59;10.00;99.90
31675;DHT22;18276;45.520;11.018;2022-12-29T10:26:32;10.10;99.90
31675;DHT22;18276;45.520;11.018;2022-12-29T10:29:04;10.30;99.90
31675;DHT22;18276;45.520;11.018;2022-12-29T10:31:45;10.40;99.90
31675;DHT22;18276;45.520;11.018;2022-12-29T10:34:20;10.60;99.90
31675;DHT22;18276;45.520;11.018;2022-12-29T10:36:52;10.70;99.90
31675;DHT22;18276;45.520;11.018;2022-12-29T10:39:42;10.80;99.90
31675;DHT22;18276;45.520;11.018;2022-12-29T10:42:13;11.00;99.90
31675;DHT22;18276;45.520;11.018;2022-12-29T10:44:42;11.10;99.90
31675;DHT22;18276;45.520;11.018;2022-12-29T10:47:16;11.30;99.90
31675;DHT22;18276;45.520;11.018;2022-12-29T10:49:46;11.50;99.90
31675;DHT22;18276;45.520;11.018;2022-12-29T10:52:16;11.70;99.90
31675;DHT22;18276;45.520;11.018;2022-12-29T10:57:27;11.90;99.90
31675;DHT22;18276;45.520;11.018;2022-12-29T10:59:56;11.80;99.90
31675;DHT22;18276;45.520;11.018;2022-12-29T11:02:47;11.80;99.90
31675;DHT22;18276;45.520;11.018;2022-12-29T11:05:36;11.80;99.70
31675;DHT22;18276;45.520;11.018;2022-12-29T11:08:10;11.80;99.40
31675;DHT22;18276;45.520;11.018;2022-12-29T11:10:39;11.80;99.00
31675;DHT22;18276;45.520;11.018;2022-12-29T11:15:41;11.80;98.20
31675;DHT22;18276;45.520;11.018;2022-12-29T11:18:38;11.80;97.80
31675;DHT22;18276;45.520;11.018;2022-12-29T11:21:36;11.90;97.70
31675;DHT22;18276;45.520;11.018;2022-12-29T11:24:27;12.30;97.30
31675;DHT22;18276;45.520;11.018;2022-12-29T11:27:10;12.50;96.50
31675;DHT22;18276;45.520;11.018;2022-12-29T11:29:42;12.60;96.10
31675;DHT22;18276;45.520;11.018;2022-12-29T11:32:20;12.70;96.10
31675;DHT22;18276;45.520;11.018;2022-12-29T11:34:55;12.80;95.60
31675;DHT22;18276;45.520;11.018;2022-12-29T11:37:32;12.80;95.00
31675;DHT22;18276;45.520;11.018;2022-12-29T11:40:16;12.60;94.80
31675;DHT22;18276;45.520;11.018;2022-12-29T11:42:51;12.30;94.70
31675;DHT22;18276;45.520;11.018;2022-12-29T11:45:33;12.10;94.90
31675;DHT22;18276;45.520;11.018;2022-12-29T11:48:13;11.80;95.10
31675;DHT22;18276;45.520;11.018;2022-12-29T11:50:42;11.60;95.50
31675;DHT22;18276;45.520;11.018;2022-12-29T11:53:27;11.30;95.80
31675;DHT22;18276;45.520;11.018;2022-12-29T11:55:57;11.10;96.20
31675;DHT22;18276;45.520;11.018;2022-12-29T11:58:36;11.00;96.60
31675;DHT22;18276;45.520;11.018;2022-12-29T12:01:18;10.90;97.00
31675;DHT22;18276;45.520;11.018;2022-12-29T12:06:23;10.60;97.80
31675;DHT22;18276;45.520;11.018;2022-12-29T12:11:52;10.40;98.70
31675;DHT22;18276;45.520;11.018;2022-12-29T12:14:35;10.40;99.30
31675;DHT22;18276;45.520;11.018;2022-12-29T12:18:18;10.30;99.80
31675;DHT22;18276;45.520;11.018;2022-12-29T12:31:27;10.40;99.90
31675;DHT22;18276;45.520;11.018;2022-12-29T12:34:00;10.40;99.90
31675;DHT22;18276;45.520;11.018;2022-12-29T12:36:49;10.30;99.90
31675;DHT22;18276;45.520;11.018;2022-12-29T12:39:41;10.30;99.90
31675;DHT22;18276;45.520;11.018;2022-12-29T12:54:14;10.20;99.90
31675;DHT22;18276;45.520;11.018;2022-12-29T12:56:59;10.10;99.90
31675;DHT22;18276;45.520;11.018;2022-12-29T12:59:55;10.10;99.90
31675;DHT22;18276;45.520;11.018;2022-12-29T13:02:50;10.00;99.90
31675;DHT22;18276;45.520;11.018;2022-12-29T13:17:26;10.00;99.90
31675;DHT22;18276;45.520;11.018;2022-12-29T13:20:20;10.10;99.90
31675;DHT22;18276;45.520;11.018;2022-12-29T13:23:16;10.10;99.90
31675;DHT22;18276;45.520;11.018;2022-12-29T13:26:02;10.10;99.90
31675;DHT22;18276;45.520;11.018;2022-12-29T13:31:09;10.00;99.90
31675;DHT22;18276;45.520;11.018;2022-12-29T13:37:00;9.90;99.90
31675;DHT22;18276;45.520;11.018;2022-12-29T13:39:34;9.90;99.90
31675;DHT22;18276;45.520;11.018;2022-12-29T13:42:03;9.80;99.90
31675;DHT22;18276;45.520;11.018;2022-12-29T13:44:48;9.80;99.90
31675;DHT22;18276;45.520;11.018;2022-12-29T13:47:33;9.90;99.90
31675;DHT22;18276;45.520;11.018;2022-12-29T13:50:05;9.90;99.90
31675;DHT22;18276;45.520;11.018;2022-12-29T13:55:50;10.10;99.90
31675;DHT22;18276;45.520;11.018;2022-12-29T13:58:59;10.10;99.90
31675;DHT22;18276;45.520;11.018;2022-12-29T14:01:56;10.00;99.90
31675;DHT22;18276;45.520;11.018;2022-12-29T14:04:25;9.90;99.90
31675;DHT22;18276;45.520;11.018;2022-12-29T14:07:13;9.80;99.90
31675;DHT22;18276;45.520;11.018;2022-12-29T14:15:22;9.80;99.90
31675;DHT22;18276;45.520;11.018;2022-12-29T14:18:15;9.80;99.90
31675;DHT22;18276;45.520;11.018;2022-12-29T14:20:54;9.90;99.90
31675;DHT22;18276;45.520;11.018;2022-12-29T14:26:42;9.80;99.90
31675;DHT22;18276;45.520;11.018;2022-12-29T14:31:57;9.80;99.90
31675;DHT22;18276;45.520;11.018;2022-12-29T14:34:27;9.70;99.90
31675;DHT22;18276;45.520;11.018;2022-12-29T14:37:00;9.80;99.90
31675;DHT22;18276;45.520;11.018;2022-12-29T14:39:29;9.80;99.90
31675;DHT22;18276;45.520;11.018;2022-12-29T14:45:06;9.80;99.90
31675;DHT22;18276;45.520;11.018;2022-12-29T14:47:42;9.80;99.90
31675;DHT22;18276;45.520;11.018;2022-12-29T14:50:32;9.80;99.90
31675;DHT22;18276;45.520;11.018;2022-12-29T14:53:05;9.80;99.90
31675;DHT22;18276;45.520;11.018;2022-12-29T14:55:39;9.80;99.90
31675;DHT22;18276;45.520;11.018;2022-12-29T14:59:01;9.80;99.90
31675;DHT22;18276;45.520;11.018;2022-12-29T15:01:02;9.70;99.90
31675;DHT22;18276;45.520;11.018;2022-12-29T15:03:38;9.70;99.90
31675;DHT22;18276;45.520;11.018;2022-12-29T15:06:14;9.70;99.90
31675;DHT22;18276;45.520;11.018;2022-12-29T15:11:22;9.60;99.90
31675;DHT22;18276;45.520;11.018;2022-12-29T15:13:49;9.60;99.90
31675;DHT22;18276;45.520;11.018;2022-12-29T15:16:31;9.50;99.90
31675;DHT22;18276;45.520;11.018;2022-12-29T15:18:59;9.50;99.90
31675;DHT22;18276;45.520;11.018;2022-12-29T15:21:32;9.50;99.90
31675;DHT22;18276;45.520;11.018;2022-12-29T15:24:00;9.50;99.90
31675;DHT22;18276;45.520;11.018;2022-12-29T15:26:44;9.50;99.90
31675;DHT22;18276;45.520;11.018;2022-12-29T15:29:35;9.50;99.90
31675;DHT22;18276;45.520;11.018;2022-12-29T15:32:26;9.40;99.90
31675;DHT22;18276;45.520;11.018;2022-12-29T15:34:55;9.40;99.90
31675;DHT22;18276;45.520;11.018;2022-12-29T15:37:26;9.40;99.90
31675;DHT22;18276;45.520;11.018;2022-12-29T15:39:54;9.50;99.90
31675;DHT22;18276;45.520;11.018;2022-12-29T15:45:19;9.30;99.90
31675;DHT22;18276;45.520;11.018;2022-12-29T15:47:55;9.30;99.90
31675;DHT22;18276;45.520;11.018;2022-12-29T15:50:34;9.20;99.90
31675;DHT22;18276;45.520;11.018;2022-12-29T15:53:02;9.20;99.90
31675;DHT22;18276;45.520;11.018;2022-12-29T15:55:38;9.30;99.90
31675;DHT22;18276;45.520;11.018;2022-12-29T15:58:21;9.20;99.90
31675;DHT22;18276;45.520;11.018;2022-12-29T16:00:59;9.30;99.90
31675;DHT22;18276;45.520;11.018;2022-12-29T16:03:28;9.20;99.90
31675;DHT22;18276;45.520;11.018;2022-12-29T16:06:08;9.20;99.90
31675;DHT22;18276;45.520;11.018;2022-12-29T16:08:38;9.30;99.90
31675;DHT22;18276;45.520;11.018;2022-12-29T16:11:23;9.30;99.90
31675;DHT22;18276;45.520;11.018;2022-12-29T16:13:53;9.20;99.90
31675;DHT22;18276;45.520;11.018;2022-12-29T16:16:35;9.20;99.90
31675;DHT22;18276;45.520;11.018;2022-12-29T16:21:38;9.10;99.90
31675;DHT22;18276;45.520;11.018;2022-12-29T16:24:08;9.10;99.90
31675;DHT22;18276;45.520;11.018;2022-12-29T16:26:38;9.00;99.90
31675;DHT22;18276;45.520;11.018;2022-12-29T16:29:07;9.00;99.90
31675;DHT22;18276;45.520;11.018;2022-12-29T16:31:47;9.00;99.90
31675;DHT22;18276;45.520;11.018;2022-12-29T16:34:29;9.00;99.90
31675;DHT22;18276;45.520;11.018;2022-12-29T16:37:04;9.00;99.90
31675;DHT22;18276;45.520;11.018;2022-12-29T16:39:38;9.00;99.90
31675;DHT22;18276;45.520;11.018;2022-12-29T16:50:42;9.00;99.90
31675;DHT22;18276;45.520;11.018;2022-12-29T16:53:25;9.00;99.90
31675;DHT22;18276;45.520;11.018;2022-12-29T16:55:55;9.00;99.90
31675;DHT22;18276;45.520;11.018;2022-12-29T16:58:25;9.10;99.90
31675;DHT22;18276;45.520;11.018;2022-12-29T17:01:00;9.10;99.90
31675;DHT22;18276;45.520;11.018;2022-12-29T17:03:39;9.10;99.90
31675;DHT22;18276;45.520;11.018;2022-12-29T17:06:18;9.20;99.90
31675;DHT22;18276;45.520;11.018;2022-12-29T17:08:46;9.20;99.90
31675;DHT22;18276;45.520;11.018;2022-12-29T17:11:26;9.20;99.90
31675;DHT22;18276;45.520;11.018;2022-12-29T17:14:18;9.10;99.90
31675;DHT22;18276;45.520;11.018;2022-12-29T17:16:47;9.10;99.90
31675;DHT22;18276;45.520;11.018;2022-12-29T17:19:19;9.10;99.90
31675;DHT22;18276;45.520;11.018;2022-12-29T17:21:47;9.20;99.90
31675;DHT22;18276;45.520;11.018;2022-12-29T17:24:19;9.20;99.90
31675;DHT22;18276;45.520;11.018;2022-12-29T17:26:49;9.20;99.90
31675;DHT22;18276;45.520;11.018;2022-12-29T17:31:50;9.20;99.90
31675;DHT22;18276;45.520;11.018;2022-12-29T17:34:18;9.20;99.90
31675;DHT22;18276;45.520;11.018;2022-12-29T17:36:46;9.30;99.90
31675;DHT22;18276;45.520;11.018;2022-12-29T17:39:13;9.20;99.90
31675;DHT22;18276;45.520;11.018;2022-12-29T17:41:40;9.10;99.90
31675;DHT22;18276;45.520;11.018;2022-12-29T17:44:12;9.00;99.90
31675;DHT22;18276;45.520;11.018;2022-12-29T17:46:40;9.00;99.90
31675;DHT22;18276;45.520;11.018;2022-12-29T17:49:15;9.00;99.90
31675;DHT22;18276;45.520;11.018;2022-12-29T17:51:44;9.00;99.90
31675;DHT22;18276;45.520;11.018;2022-12-29T17:54:30;9.00;99.90
31675;DHT22;18276;45.520;11.018;2022-12-29T17:56:57;9.00;99.90
31675;DHT22;18276;45.520;11.018;2022-12-29T17:59:24;9.00;99.90
31675;DHT22;18276;45.520;11.018;2022-12-29T18:01:51;9.10;99.90
31675;DHT22;18276;45.520;11.018;2022-12-29T18:04:19;9.10;99.90
31675;DHT22;18276;45.520;11.018;2022-12-29T18:06:46;9.20;99.90
31675;DHT22;18276;45.520;11.018;2022-12-29T18:09:13;9.20;99.90
31675;DHT22;18276;45.520;11.018;2022-12-29T18:11:42;9.20;99.90
31675;DHT22;18276;45.520;11.018;2022-12-29T18:14:14;9.20;99.90
31675;DHT22;18276;45.520;11.018;2022-12-29T18:16:42;9.20;99.90
31675;DHT22;18276;45.520;11.018;2022-12-29T18:19:09;9.20;99.90
31675;DHT22;18276;45.520;11.018;2022-12-29T18:21:37;9.20;99.90
31675;DHT22;18276;45.520;11.018;2022-12-29T18:24:05;9.20;99.90
31675;DHT22;18276;45.520;11.018;2022-12-29T18:26:35;9.20;99.90
31675;DHT22;18276;45.520;11.018;2022-12-29T18:29:03;9.20;99.90
31675;DHT22;18276;45.520;11.018;2022-12-29T18:31:32;9.20;99.90
31675;DHT22;18276;45.520;11.018;2022-12-29T18:34:00;9.20;99.90
31675;DHT22;18276;45.520;11.018;2022-12-29T18:36:28;9.20;99.90